Time;durP1;ratioP1;P1;durP2;ratioP2;P2;SDS_P1;SDS_P2;PMS_P1;PMS_P2;Temp;Humidity;BMP_temperature;BMP_pressure;BME280_temperature;BME280_humidity;BME280_pressure;Samples;Min_cycle;Max_cycle;Signal;HPM_P1;HPM_P2
2021/06/02 00:00:48;;;;;;;36.17;5.70;;;;;;;;;;3533903;40;20056;-68
2021/06/02 00:03:15;;;;;;;42.30;6.07;;;;;;;;;;3533223;40;20035;-68
2021/06/02 00:05:41;;;;;;;47.30;6.65;;;;;;;;;;3535796;40;20410;-68
2021/06/02 00:08:10;;;;;;;52.80;7.03;;;;;;;;;;3537045;40;20695;-69
2021/06/02 00:10:36;;;;;;;38.85;5.63;;;;;;;;;;3538443;40;20046;-68
2021/06/02 00:13:03;;;;;;;41.67;5.93;;;;;;;;;;3534825;40;20057;-68
2021/06/02 00:15:29;;;;;;;40.00;5.40;;;;;;;;;;3533099;40;20042;-68
2021/06/02 00:17:56;;;;;;;50.42;6.53;;;;;;;;;;3534419;40;20029;-68
2021/06/02 00:20:22;;;;;;;58.30;7.45;;;;;;;;;;3535856;40;20039;-68
2021/06/02 00:22:48;;;;;;;41.50;5.70;;;;;;;;;;3538785;40;20031;-68
2021/06/02 00:25:14;;;;;;;41.92;5.93;;;;;;;;;;3539095;40;20055;-69
2021/06/02 00:27:41;;;;;;;67.93;8.43;;;;;;;;;;3539844;40;20050;-68
2021/06/02 00:30:10;;;;;;;57.58;7.63;;;;;;;;;;3540028;40;20046;-67
2021/06/02 00:32:36;;;;;;;70.22;8.23;;;;;;;;;;3537385;40;20076;-68
2021/06/02 00:35:03;;;;;;;80.25;8.57;;;;;;;;;;3536785;40;20035;-68
2021/06/02 00:37:29;;;;;;;70.05;7.25;;;;;;;;;;3534402;40;20042;-68
2021/06/02 00:39:56;;;;;;;76.22;8.50;;;;;;;;;;3532819;40;20023;-68
2021/06/02 00:42:23;;;;;;;76.45;8.90;;;;;;;;;;3540902;40;20037;-68
2021/06/02 00:44:50;;;;;;;58.05;7.32;;;;;;;;;;3539205;40;20049;-68
2021/06/02 00:47:17;;;;;;;50.42;6.70;;;;;;;;;;3537069;40;20136;-68
2021/06/02 00:49:44;;;;;;;64.63;9.95;;;;;;;;;;3538324;40;20589;-68
2021/06/02 00:52:10;;;;;;;50.22;6.45;;;;;;;;;;3539968;40;20062;-68
2021/06/02 00:54:37;;;;;;;58.03;7.28;;;;;;;;;;3541986;40;20049;-68
2021/06/02 00:57:03;;;;;;;54.58;7.57;;;;;;;;;;3541083;40;20041;-67
2021/06/02 00:59:34;;;;;;;43.30;6.32;;;;;;;;;;3536264;40;20089;-68
2021/06/02 01:02:00;;;;;;;39.95;6.13;;;;;;;;;;3537432;40;20116;-68
2021/06/02 01:04:27;;;;;;;43.58;6.45;;;;;;;;;;3535346;40;20155;-67
2021/06/02 01:06:54;;;;;;;51.33;7.00;;;;;;;;;;3534029;40;20229;-68
2021/06/02 01:09:24;;;;;;;49.75;7.05;;;;;;;;;;3532786;40;20039;-68
2021/06/02 01:11:50;;;;;;;53.70;7.40;;;;;;;;;;3538424;40;20062;-68
2021/06/02 01:14:17;;;;;;;53.58;7.22;;;;;;;;;;3538715;40;20035;-67
2021/06/02 01:16:43;;;;;;;67.20;8.77;;;;;;;;;;3536074;40;20133;-67
2021/06/02 01:19:13;;;;;;;51.35;7.00;;;;;;;;;;3534511;40;20042;-67
2021/06/02 01:22:00;;;;;;;60.42;7.85;;;;;;;;;;3532096;40;20390;-67
2021/06/02 01:24:30;;;;;;;61.85;7.68;;;;;;;;;;3534303;40;20554;-68
2021/06/02 01:26:57;;;;;;;66.72;8.43;;;;;;;;;;3537858;40;20077;-67
2021/06/02 01:29:25;;;;;;;66.80;7.95;;;;;;;;;;3536278;40;20143;-68
2021/06/02 01:32:06;;;;;;;70.00;8.98;;;;;;;;;;3538586;40;20108;-67
2021/06/02 01:34:45;;;;;;;63.40;7.93;;;;;;;;;;3540840;40;20035;-67
2021/06/02 01:37:20;;;;;;;56.10;7.18;;;;;;;;;;3540492;40;20279;-67
2021/06/02 01:39:49;;;;;;;88.78;12.23;;;;;;;;;;3537581;40;20039;-68
2021/06/02 01:42:18;;;;;;;61.20;7.95;;;;;;;;;;3536044;40;20049;-68
2021/06/02 01:44:44;;;;;;;82.40;10.68;;;;;;;;;;3539090;40;20030;-68
2021/06/02 01:47:25;;;;;;;51.08;7.53;;;;;;;;;;3534790;40;20156;-67
2021/06/02 01:49:58;;;;;;;76.95;11.95;;;;;;;;;;3534378;40;20039;-67
2021/06/02 01:52:42;;;;;;;72.90;9.27;;;;;;;;;;3534484;40;20042;-67
2021/06/02 01:55:11;;;;;;;58.67;7.78;;;;;;;;;;3537206;40;20129;-68
2021/06/02 01:57:37;;;;;;;55.95;7.72;;;;;;;;;;3539011;40;20046;-68
2021/06/02 02:00:17;;;;;;;63.03;8.77;;;;;;;;;;3538240;40;20709;-68
2021/06/02 02:02:47;;;;;;;63.72;8.40;;;;;;;;;;3534839;40;20162;-67
2021/06/02 02:05:28;;;;;;;75.93;8.98;;;;;;;;;;3534171;40;20408;-68
2021/06/02 02:08:12;;;;;;;81.75;9.57;;;;;;;;;;3536614;40;20432;-67
2021/06/02 02:10:52;;;;;;;69.30;8.25;;;;;;;;;;3533690;40;20034;-66
2021/06/02 02:13:18;;;;;;;91.60;9.98;;;;;;;;;;3538141;40;20447;-66
2021/06/02 02:15:56;;;;;;;81.57;9.43;;;;;;;;;;3538555;40;20151;-68
2021/06/02 02:18:40;;;;;;;64.28;8.20;;;;;;;;;;3537406;40;20741;-66
2021/06/02 02:21:25;;;;;;;104.80;12.48;;;;;;;;;;3535294;40;20158;-66
2021/06/02 02:24:02;;;;;;;85.22;9.73;;;;;;;;;;3534876;40;20043;-66
2021/06/02 02:26:41;;;;;;;70.72;8.02;;;;;;;;;;3534116;40;20047;-68
2021/06/02 02:29:10;;;;;;;96.30;10.05;;;;;;;;;;3535688;40;20038;-68
2021/06/02 02:31:43;;;;;;;68.85;7.60;;;;;;;;;;3537423;40;20043;-66
2021/06/02 02:34:20;;;;;;;94.43;10.23;;;;;;;;;;3535467;40;20063;-67
2021/06/02 02:36:52;;;;;;;104.55;11.15;;;;;;;;;;3534172;40;20058;-67
2021/06/02 02:39:30;;;;;;;94.60;10.50;;;;;;;;;;3539439;40;20037;-67
2021/06/02 02:41:56;;;;;;;107.00;11.18;;;;;;;;;;3536243;40;20133;-66
2021/06/02 02:44:41;;;;;;;100.22;10.43;;;;;;;;;;3538855;40;20045;-67
2021/06/02 02:47:13;;;;;;;100.90;10.43;;;;;;;;;;3536563;40;20070;-66
2021/06/02 02:49:45;;;;;;;115.28;12.05;;;;;;;;;;3533608;40;20077;-68
2021/06/02 02:52:30;;;;;;;125.47;12.73;;;;;;;;;;3537298;40;20135;-64
2021/06/02 02:55:07;;;;;;;124.07;12.40;;;;;;;;;;3533498;40;20410;-66
2021/06/02 02:57:39;;;;;;;129.60;12.93;;;;;;;;;;3532459;40;20041;-68
2021/06/02 03:00:09;;;;;;;137.68;14.52;;;;;;;;;;3535715;40;20058;-68
2021/06/02 03:02:41;;;;;;;113.22;11.88;;;;;;;;;;3537412;40;20487;-66
2021/06/02 03:05:12;;;;;;;112.22;11.50;;;;;;;;;;3532309;40;20496;-67
2021/06/02 03:07:39;;;;;;;132.45;16.85;;;;;;;;;;3532829;40;20121;-67
2021/06/02 03:10:05;;;;;;;128.60;13.05;;;;;;;;;;3531923;40;20129;-68
2021/06/02 03:12:34;;;;;;;166.20;36.95;;;;;;;;;;3534894;40;20034;-66
2021/06/02 03:15:03;;;;;;;146.95;30.52;;;;;;;;;;3534729;40;20031;-67
2021/06/02 03:17:32;;;;;;;152.15;26.33;;;;;;;;;;3535741;40;20049;-66
2021/06/02 03:20:01;;;;;;;124.28;12.95;;;;;;;;;;3534231;40;20038;-67
2021/06/02 03:22:46;;;;;;;103.50;10.65;;;;;;;;;;3535342;40;20038;-67
2021/06/02 03:25:19;;;;;;;116.75;12.27;;;;;;;;;;3536438;40;20047;-67
2021/06/02 03:28:04;;;;;;;168.88;16.48;;;;;;;;;;3535009;40;20042;-67
2021/06/02 03:30:35;;;;;;;84.10;9.30;;;;;;;;;;3533657;40;20593;-66
2021/06/02 03:33:19;;;;;;;96.57;10.13;;;;;;;;;;3532568;40;20333;-65
2021/06/02 03:36:01;;;;;;;135.63;23.77;;;;;;;;;;3534113;40;20042;-66
2021/06/02 03:38:53;;;;;;;143.45;20.70;;;;;;;;;;3534194;40;20136;-66
2021/06/02 03:41:33;;;;;;;92.97;11.95;;;;;;;;;;3539879;40;20042;-66
2021/06/02 03:44:13;;;;;;;157.75;26.63;;;;;;;;;;3534398;40;20047;-67
2021/06/02 03:46:57;;;;;;;156.60;16.30;;;;;;;;;;3534344;40;20424;-66
2021/06/02 03:49:42;;;;;;;150.73;16.13;;;;;;;;;;3532307;40;20401;-66
2021/06/02 03:52:10;;;;;;;154.23;20.45;;;;;;;;;;3536177;40;20046;-66
2021/06/02 03:54:53;;;;;;;147.85;32.05;;;;;;;;;;3536611;40;20471;-66
2021/06/02 03:57:19;;;;;;;138.18;48.97;;;;;;;;;;3538058;40;20678;-66
2021/06/02 03:59:45;;;;;;;179.15;33.75;;;;;;;;;;3534323;40;20046;-66
2021/06/02 04:02:29;;;;;;;131.18;22.55;;;;;;;;;;3532468;40;20559;-66
2021/06/02 04:05:01;;;;;;;129.32;15.35;;;;;;;;;;3536277;40;20107;-66
2021/06/02 04:07:35;;;;;;;135.52;15.35;;;;;;;;;;3535019;40;20800;-67
2021/06/02 04:10:03;;;;;;;177.68;18.25;;;;;;;;;;3536284;40;20039;-66
2021/06/02 04:12:36;;;;;;;128.88;14.00;;;;;;;;;;3538625;40;20030;-66
2021/06/02 04:15:04;;;;;;;162.43;30.95;;;;;;;;;;3538691;40;20062;-66
2021/06/02 04:17:31;;;;;;;164.55;36.08;;;;;;;;;;3536106;40;20808;-67
2021/06/02 04:19:58;;;;;;;223.38;89.00;;;;;;;;;;3535436;40;20109;-67
2021/06/02 04:22:25;;;;;;;151.02;17.00;;;;;;;;;;3532657;40;20039;-66
2021/06/02 04:24:51;;;;;;;255.60;155.55;;;;;;;;;;3535225;40;20042;-66
2021/06/02 04:27:19;;;;;;;228.80;145.27;;;;;;;;;;3533838;40;20034;-67
2021/06/02 04:29:49;;;;;;;230.02;83.63;;;;;;;;;;3532780;40;20042;-67
2021/06/02 04:32:15;;;;;;;135.07;15.55;;;;;;;;;;3538258;40;20330;-67
2021/06/02 04:34:41;;;;;;;124.55;14.25;;;;;;;;;;3535420;40;20051;-66
2021/06/02 04:37:08;;;;;;;102.78;13.20;;;;;;;;;;3536544;40;20043;-67
2021/06/02 04:39:37;;;;;;;113.63;13.25;;;;;;;;;;3540258;40;20030;-67
2021/06/02 04:42:04;;;;;;;140.57;15.57;;;;;;;;;;3531391;40;20043;-66
2021/06/02 04:44:31;;;;;;;115.32;13.57;;;;;;;;;;3535384;40;20034;-66
2021/06/02 04:46:57;;;;;;;105.18;12.40;;;;;;;;;;3535867;40;20117;-67
2021/06/02 04:49:41;;;;;;;113.07;12.75;;;;;;;;;;3539212;40;20043;-67
2021/06/02 04:52:10;;;;;;;154.27;16.77;;;;;;;;;;3539941;40;20085;-67
2021/06/02 04:54:54;;;;;;;151.48;16.15;;;;;;;;;;3534522;40;20035;-67
2021/06/02 04:57:39;;;;;;;155.23;16.80;;;;;;;;;;3537121;40;20050;-65
2021/06/02 05:00:11;;;;;;;158.63;17.20;;;;;;;;;;3533101;40;20100;-66
2021/06/02 05:02:53;;;;;;;116.95;13.02;;;;;;;;;;3534748;40;20619;-67
2021/06/02 05:05:38;;;;;;;119.38;13.50;;;;;;;;;;3533979;40;20046;-66
2021/06/02 05:08:22;;;;;;;122.80;13.80;;;;;;;;;;3535678;40;20077;-67
2021/06/02 05:11:07;;;;;;;144.65;15.35;;;;;;;;;;3538144;40;20070;-65
2021/06/02 05:14:02;;;;;;;146.07;16.00;;;;;;;;;;3534922;40;20055;-65
2021/06/02 05:17:06;;;;;;;134.50;14.55;;;;;;;;;;3535701;40;20051;-67
2021/06/02 05:22:40;;;;;;;137.77;15.00;;;;;;;;;;3528354;40;20089;-67
2021/06/02 05:25:14;;;;;;;118.03;13.30;;;;;;;;;;3527187;40;20586;-66
2021/06/02 05:28:00;;;;;;;129.93;14.10;;;;;;;;;;3536569;40;20049;-67
2021/06/02 05:30:32;;;;;;;131.98;14.45;;;;;;;;;;3537164;40;20031;-67
2021/06/02 05:33:10;;;;;;;121.43;13.55;;;;;;;;;;3536470;40;20026;-67
2021/06/02 05:35:55;;;;;;;123.60;14.13;;;;;;;;;;3539338;40;20737;-67
2021/06/02 05:38:39;;;;;;;143.70;16.38;;;;;;;;;;3537838;40;20162;-67
2021/06/02 05:41:25;;;;;;;101.88;11.85;;;;;;;;;;3535618;40;20042;-67
2021/06/02 05:43:51;;;;;;;;;;;;;;;;;;3535313;40;20796;-67
2021/06/02 05:46:17;;;;;;;148.20;16.33;;;;;;;;;;3535963;40;19989;-67
2021/06/02 05:48:48;;;;;;;133.70;14.63;;;;;;;;;;3535737;40;20053;-67
2021/06/02 05:51:26;;;;;;;127.75;14.13;;;;;;;;;;3535960;40;20364;-67
2021/06/02 05:54:09;;;;;;;111.80;12.98;;;;;;;;;;3538210;40;20482;-67
2021/06/02 05:56:35;;;;;;;124.50;13.77;;;;;;;;;;3536358;40;20038;-66
2021/06/02 05:59:21;;;;;;;133.80;14.85;;;;;;;;;;3536319;40;20031;-67
2021/06/02 06:01:47;;;;;;;95.53;10.90;;;;;;;;;;3538261;40;20046;-66
2021/06/02 06:04:33;;;;;;;100.80;12.00;;;;;;;;;;3537152;40;20715;-65
2021/06/02 06:07:17;;;;;;;101.88;11.63;;;;;;;;;;3537322;40;20086;-66
2021/06/02 06:09:46;;;;;;;144.57;16.70;;;;;;;;;;3536723;40;20042;-65
2021/06/02 06:12:18;;;;;;;122.78;13.93;;;;;;;;;;3537984;40;20045;-66
2021/06/02 06:15:02;;;;;;;114.15;12.98;;;;;;;;;;3536848;40;20042;-66
2021/06/02 06:17:34;;;;;;;102.20;11.60;;;;;;;;;;3538051;40;20034;-66
2021/06/02 06:20:23;;;;;;;123.57;13.80;;;;;;;;;;3536392;40;20131;-66
2021/06/02 06:23:01;;;;;;;126.03;13.73;;;;;;;;;;3538323;40;20301;-65
2021/06/02 06:25:32;;;;;;;143.02;15.18;;;;;;;;;;3538907;40;20042;-66
2021/06/02 06:28:00;;;;;;;104.15;11.75;;;;;;;;;;3536379;40;20042;-66
2021/06/02 06:30:26;;;;;;;103.35;12.23;;;;;;;;;;3533964;40;20038;-60
2021/06/02 06:32:53;;;;;;;99.22;11.32;;;;;;;;;;3537792;40;20702;-59
2021/06/02 06:35:20;;;;;;;110.40;12.95;;;;;;;;;;3534867;40;20063;-59
2021/06/02 06:37:48;;;;;;;119.03;13.13;;;;;;;;;;3534356;40;20507;-59
2021/06/02 06:40:33;;;;;;;91.75;10.52;;;;;;;;;;3536947;40;20075;-60
2021/06/02 06:43:00;;;;;;;103.85;12.20;;;;;;;;;;3533384;40;20662;-59
2021/06/02 06:45:30;;;;;;;89.00;10.73;;;;;;;;;;3535254;40;20799;-61
2021/06/02 06:47:57;;;;;;;111.30;12.10;;;;;;;;;;3536713;40;20150;-59
2021/06/02 06:50:24;;;;;;;119.38;12.85;;;;;;;;;;3533452;40;20078;-59
2021/06/02 06:52:51;;;;;;;119.88;13.48;;;;;;;;;;3531919;40;20488;-59
2021/06/02 06:55:18;;;;;;;140.48;15.13;;;;;;;;;;3533210;40;20047;-61
2021/06/02 06:57:45;;;;;;;116.07;12.68;;;;;;;;;;3536508;40;20038;-59
2021/06/02 07:00:11;;;;;;;132.15;15.10;;;;;;;;;;3536165;40;20122;-59
2021/06/02 07:02:39;;;;;;;108.93;12.65;;;;;;;;;;3537327;40;20046;-59
2021/06/02 07:05:06;;;;;;;130.73;13.77;;;;;;;;;;3534253;40;20629;-59
2021/06/02 07:07:34;;;;;;;127.53;13.98;;;;;;;;;;3531681;40;20053;-61
2021/06/02 07:10:00;;;;;;;144.98;16.60;;;;;;;;;;3535219;40;20038;-62
2021/06/02 07:12:26;;;;;;;142.52;16.10;;;;;;;;;;3535507;40;20499;-63
2021/06/02 07:14:53;;;;;;;147.82;16.92;;;;;;;;;;3533918;40;21024;-62
2021/06/02 07:17:22;;;;;;;153.65;25.83;;;;;;;;;;3538565;40;20034;-62
2021/06/02 07:19:49;;;;;;;194.93;22.00;;;;;;;;;;3539772;40;20313;-62
2021/06/02 07:22:23;;;;;;;144.20;15.95;;;;;;;;;;3537253;40;20035;-63
2021/06/02 07:24:53;;;;;;;131.20;16.60;;;;;;;;;;3538431;40;20294;-62
2021/06/02 07:27:19;;;;;;;173.98;25.08;;;;;;;;;;3535815;40;20031;-63
2021/06/02 07:29:45;;;;;;;222.25;29.98;;;;;;;;;;3538160;40;20101;-63
2021/06/02 07:32:11;;;;;;;141.57;51.70;;;;;;;;;;3535372;40;20115;-62
2021/06/02 07:34:37;;;;;;;232.23;128.95;;;;;;;;;;3536160;40;20452;-63
2021/06/02 07:37:03;;;;;;;315.25;224.68;;;;;;;;;;3536307;40;20043;-63
2021/06/02 07:39:29;;;;;;;209.00;130.60;;;;;;;;;;3538445;40;20038;-63
2021/06/02 07:41:56;;;;;;;316.65;205.63;;;;;;;;;;3537835;40;20416;-63
2021/06/02 07:44:22;;;;;;;318.33;216.05;;;;;;;;;;3533755;40;20045;-63
2021/06/02 07:46:48;;;;;;;169.40;23.13;;;;;;;;;;3531626;40;20078;-62
2021/06/02 07:49:14;;;;;;;176.23;26.73;;;;;;;;;;3535593;40;20282;-62
2021/06/02 07:51:40;;;;;;;185.82;31.45;;;;;;;;;;3532359;40;20097;-63
2021/06/02 07:54:07;;;;;;;192.13;45.30;;;;;;;;;;3536030;40;20136;-63
2021/06/02 07:56:33;;;;;;;199.07;48.10;;;;;;;;;;3537558;40;20089;-66
2021/06/02 07:59:00;;;;;;;451.73;371.27;;;;;;;;;;3536516;40;20062;-66
2021/06/02 08:01:27;;;;;;;717.47;642.47;;;;;;;;;;3531324;40;20199;-66
2021/06/02 08:03:53;;;;;;;744.22;640.67;;;;;;;;;;3534044;40;20074;-66
2021/06/02 08:06:19;;;;;;;699.45;622.38;;;;;;;;;;3535922;40;20121;-66
2021/06/02 08:08:46;;;;;;;713.67;636.13;;;;;;;;;;3535634;40;20023;-66
2021/06/02 08:11:12;;;;;;;711.25;634.72;;;;;;;;;;3533671;40;20697;-65
2021/06/02 08:13:38;;;;;;;165.57;67.05;;;;;;;;;;3533124;40;20851;-64
2021/06/02 08:16:04;;;;;;;743.70;664.45;;;;;;;;;;3533968;40;20129;-66
2021/06/02 08:18:31;;;;;;;738.65;662.00;;;;;;;;;;3535406;40;20094;-65
2021/06/02 08:20:57;;;;;;;779.13;699.05;;;;;;;;;;3534480;40;20444;-66
2021/06/02 08:26:05;;;;;;;772.42;691.92;;;;;;;;;;3608445;39;20419;-65
2021/06/02 08:28:32;;;;;;;785.25;701.05;;;;;;;;;;3614563;39;20504;-67
2021/06/02 08:30:58;;;;;;;785.03;704.10;;;;;;;;;;3613911;39;20071;-67
2021/06/02 08:33:24;;;;;;;794.63;713.22;;;;;;;;;;3610173;39;20054;-66
2021/06/02 08:35:50;;;;;;;791.08;711.15;;;;;;;;;;3613848;39;20058;-66
2021/06/02 08:38:16;;;;;;;803.72;724.95;;;;;;;;;;3608390;39;20035;-66
2021/06/02 08:40:42;;;;;;;813.05;731.63;;;;;;;;;;3610138;39;1073671260;-66
2021/06/02 08:43:08;;;;;;;826.72;747.72;;;;;;;;;;3612721;39;20039;-65
